createdAt,value
2019-02-04T00:01:00.755Z,102188.80
2019-02-04T00:03:30.561Z,102181.25
2019-02-04T00:06:00.157Z,102187.03
2019-02-04T00:08:29.935Z,102186.16
2019-02-04T00:10:59.546Z,102196.38
2019-02-04T00:13:29.269Z,102197.28
2019-02-04T00:15:58.979Z,102198.59
2019-02-04T00:18:28.710Z,102206.16
2019-02-04T00:20:58.224Z,102208.38
2019-02-04T00:23:27.871Z,102210.17
2019-02-04T00:25:57.412Z,102207.48
2019-02-04T00:28:26.978Z,102210.10
2019-02-04T00:30:56.535Z,102209.22
2019-02-04T00:33:26.099Z,102207.02
2019-02-04T00:35:55.959Z,102201.67
2019-02-04T00:38:25.571Z,102214.57
2019-02-04T00:40:55.076Z,102217.23
2019-02-04T00:43:24.619Z,102225.23
2019-02-04T00:45:54.180Z,102219.89
2019-02-04T00:48:23.781Z,102222.11
2019-02-04T00:50:53.506Z,102223.89
2019-02-04T00:53:22.984Z,102223.46
2019-02-04T00:55:52.622Z,102225.23
2019-02-04T00:58:22.264Z,102222.58
2019-02-04T01:00:51.877Z,102230.13
2019-02-04T01:03:21.688Z,102231.02
2019-02-04T01:05:51.266Z,102223.92
2019-02-04T01:08:20.795Z,102232.78
2019-02-04T01:10:50.419Z,102232.34
2019-02-04T01:13:20.068Z,102238.54
2019-02-04T01:15:49.671Z,102238.55
2019-02-04T01:18:19.858Z,102236.78
2019-02-04T01:20:49.449Z,102231.88
2019-02-04T01:23:19.077Z,102231.89
2019-02-04T01:25:48.717Z,102229.25
2019-02-04T01:28:18.301Z,102232.34
2019-02-04T01:30:47.816Z,102224.81
2019-02-04T01:33:17.365Z,102229.23
2019-02-04T01:35:46.890Z,102230.56
2019-02-04T01:38:16.484Z,102235.88
2019-02-04T01:40:46.004Z,102241.59
2019-02-04T01:43:15.531Z,102243.37
2019-02-04T01:45:45.549Z,102247.32
2019-02-04T01:48:15.319Z,102246.37
2019-02-04T01:50:44.862Z,102248.62
2019-02-04T01:53:14.373Z,102246.86
2019-02-04T01:55:43.879Z,102254.89
2019-02-04T01:58:13.632Z,102256.62
2019-02-04T02:00:43.415Z,102254.88
2019-02-04T02:03:13.049Z,102256.25
2019-02-04T02:05:42.581Z,102260.66
2019-02-04T02:08:12.108Z,102261.56
2019-02-04T02:10:41.715Z,102262.44
2019-02-04T02:13:11.887Z,102266.45
2019-02-04T02:15:41.356Z,102271.78
2019-02-04T02:18:10.971Z,102271.31
2019-02-04T02:20:40.461Z,102264.67
2019-02-04T02:23:16.794Z,102269.09
2019-02-04T02:25:48.451Z,102274.43
2019-02-04T02:28:18.020Z,102273.45
2019-02-04T02:30:47.559Z,102265.96
2019-02-04T02:33:17.106Z,102266.38
2019-02-04T02:35:46.625Z,102267.29
2019-02-04T02:38:17.339Z,102265.52
2019-02-04T02:40:46.984Z,102266.88
2019-02-04T02:43:16.508Z,102258.44
2019-02-04T02:45:46.016Z,102262.43
2019-02-04T02:48:15.570Z,102265.53
2019-02-04T02:50:45.118Z,102267.31
2019-02-04T02:53:14.604Z,102276.23
2019-02-04T02:55:44.244Z,102272.68
2019-02-04T02:58:13.864Z,102278.45
2019-02-04T03:00:43.407Z,102277.11
2019-02-04T03:03:13.057Z,102282.02
2019-02-04T03:05:42.595Z,102286.47
2019-02-04T03:08:12.399Z,102276.68
2019-02-04T03:10:42.220Z,102268.24
2019-02-04T03:13:12.096Z,102268.24
2019-02-04T03:15:42.208Z,102270.89
2019-02-04T03:18:11.927Z,102270.48
2019-02-04T03:20:41.720Z,102265.58
2019-02-04T03:23:11.764Z,102266.91
2019-02-04T03:25:41.834Z,102265.60
2019-02-04T03:28:11.509Z,102261.13
2019-02-04T03:30:41.034Z,102260.70
2019-02-04T03:33:10.513Z,102263.34
2019-02-04T03:35:40.009Z,102264.69
2019-02-04T03:38:09.887Z,102265.56
2019-02-04T03:40:39.393Z,102266.42
2019-02-04T03:43:08.917Z,102262.42
2019-02-04T03:45:38.469Z,102263.26
2019-02-04T03:48:09.403Z,102254.36
2019-02-04T03:50:39.313Z,102262.41
2019-02-04T03:53:08.854Z,102259.27
2019-02-04T03:55:38.511Z,102255.67
2019-02-04T03:58:08.047Z,102261.89
2019-02-04T04:00:37.615Z,102258.31
2019-02-04T04:03:07.657Z,102256.53
2019-02-04T04:05:37.282Z,102260.09
2019-02-04T04:08:06.985Z,102252.12
2019-02-04T04:10:36.584Z,102250.33
2019-02-04T04:13:06.412Z,102258.76
2019-02-04T04:15:35.979Z,102255.20
2019-02-04T04:18:15.368Z,102256.52
2019-02-04T04:20:37.782Z,102254.30
2019-02-04T04:23:07.390Z,102257.85
2019-02-04T04:25:37.112Z,102257.44
2019-02-04T04:28:06.819Z,102254.78
2019-02-04T04:30:37.605Z,102253.45
2019-02-04T04:33:07.077Z,102249.89
2019-02-04T04:35:36.671Z,102246.37
2019-02-04T04:38:06.344Z,102245.42
2019-02-04T04:40:36.067Z,102245.84
2019-02-04T04:43:05.570Z,102245.42
2019-02-04T04:45:35.385Z,102232.12
2019-02-04T04:48:04.883Z,102239.19
2019-02-04T04:50:34.422Z,102242.73
2019-02-04T04:53:03.903Z,102242.28
2019-02-04T04:55:33.480Z,102243.16
2019-02-04T04:58:02.958Z,102246.20
2019-02-04T05:00:32.576Z,102249.27
2019-02-04T05:03:02.142Z,102252.84
2019-02-04T05:05:31.720Z,102254.11
2019-02-04T05:08:01.215Z,102251.55
2019-02-04T05:10:30.835Z,102256.44
2019-02-04T05:13:00.548Z,102251.91
2019-02-04T05:15:30.117Z,102259.46
2019-02-04T05:17:59.572Z,102255.05
2019-02-04T05:20:29.093Z,102258.25
2019-02-04T05:22:58.603Z,102257.28
2019-02-04T05:25:28.413Z,102257.28
2019-02-04T05:27:58.113Z,102255.45
2019-02-04T05:30:27.640Z,102262.53
2019-02-04T05:32:57.148Z,102255.88
2019-02-04T05:35:26.743Z,102258.09
2019-02-04T05:37:56.252Z,102251.81
2019-02-04T05:40:25.744Z,102253.61
2019-02-04T05:42:55.268Z,102257.19
2019-02-04T05:45:25.113Z,102246.84
2019-02-04T05:48:00.894Z,102239.28
2019-02-04T05:50:30.480Z,102236.17
2019-02-04T05:53:00.170Z,102244.17
2019-02-04T05:55:30.679Z,102235.31
2019-02-04T05:58:00.441Z,102233.05
2019-02-04T06:00:34.323Z,102235.69
2019-02-04T06:03:04.044Z,102228.55
2019-02-04T06:05:33.556Z,102236.21
2019-02-04T06:08:03.307Z,102229.01
2019-02-04T06:10:32.854Z,102224.98
2019-02-04T06:13:02.409Z,102227.17
2019-02-04T06:15:32.021Z,102216.84
2019-02-04T06:18:01.599Z,102221.38
2019-02-04T06:20:31.143Z,102227.17
2019-02-04T06:23:00.673Z,102225.80
2019-02-04T06:25:30.189Z,102220.05
2019-02-04T06:28:00.063Z,102215.15
2019-02-04T06:30:29.537Z,102213.69
2019-02-04T06:32:59.357Z,102210.17
2019-02-04T06:35:29.399Z,102215.08
2019-02-04T06:37:59.031Z,102205.70
2019-02-04T06:40:28.575Z,102203.41
2019-02-04T06:42:58.151Z,102195.86
2019-02-04T06:45:27.660Z,102200.33
2019-02-04T06:47:57.313Z,102202.10
2019-02-04T06:50:28.214Z,102203.44
2019-02-04T06:52:57.657Z,102197.25
2019-02-04T06:55:33.910Z,102190.13
2019-02-04T06:58:03.363Z,102198.15
2019-02-04T07:00:33.158Z,102198.59
2019-02-04T07:03:03.142Z,102193.59
2019-02-04T07:05:43.159Z,102194.59
2019-02-04T07:08:04.032Z,102193.19
2019-02-04T07:10:33.573Z,102190.60
2019-02-04T07:13:03.251Z,102186.13
2019-02-04T07:15:32.960Z,102193.16
2019-02-04T07:18:02.446Z,102195.91
2019-02-04T07:20:32.028Z,102191.00
2019-02-04T07:23:01.483Z,102185.58
2019-02-04T07:25:31.166Z,102188.22
2019-02-04T07:28:09.063Z,102182.87
2019-02-04T07:30:39.144Z,102187.84
2019-02-04T07:33:08.626Z,102191.30
2019-02-04T07:35:38.152Z,102193.38
2019-02-04T07:38:07.742Z,102191.08
2019-02-04T07:40:37.279Z,102192.85
2019-02-04T07:43:06.793Z,102185.73
2019-02-04T07:45:36.717Z,102197.63
2019-02-04T07:48:06.303Z,102194.89
2019-02-04T07:50:35.799Z,102206.38
2019-02-04T07:53:05.300Z,102205.38
2019-02-04T07:55:34.889Z,102202.70
2019-02-04T07:58:04.424Z,102201.83
2019-02-04T08:00:34.297Z,102199.09
2019-02-04T08:03:03.966Z,102192.00
2019-02-04T08:05:33.516Z,102192.48
2019-02-04T08:08:03.037Z,102185.83
2019-02-04T08:10:32.527Z,102180.33
2019-02-04T08:13:02.453Z,102174.94
2019-02-04T08:15:36.810Z,102177.49
2019-02-04T08:18:07.026Z,102171.59
2019-02-04T08:20:36.600Z,102169.81
2019-02-04T08:23:06.137Z,102167.45
2019-02-04T08:25:35.714Z,102173.97
2019-02-04T08:28:05.264Z,102171.06
2019-02-04T08:30:38.341Z,102172.83
2019-02-04T08:33:07.613Z,102160.69
2019-02-04T08:35:37.142Z,102163.03
2019-02-04T08:38:06.754Z,102166.70
2019-02-04T08:40:36.738Z,102167.95
2019-02-04T08:43:06.584Z,102168.05
2019-02-04T08:45:36.032Z,102166.61
2019-02-04T08:48:05.728Z,102168.81
2019-02-04T08:50:35.241Z,102167.33
2019-02-04T08:53:04.849Z,102161.88
2019-02-04T08:55:34.831Z,102167.67
2019-02-04T08:58:04.715Z,102169.58
2019-02-04T09:00:35.242Z,102178.72
2019-02-04T09:03:04.770Z,102171.96
2019-02-04T09:05:34.494Z,102171.01
2019-02-04T09:08:04.102Z,102185.16
2019-02-04T09:10:34.056Z,102184.51
2019-02-04T09:13:03.632Z,102194.11
2019-02-04T09:15:33.181Z,102192.30
2019-02-04T09:18:02.828Z,102185.28
2019-02-04T09:20:32.352Z,102192.59
2019-02-04T09:23:01.965Z,102189.00
2019-02-04T09:25:31.952Z,102189.94
2019-02-04T09:28:01.579Z,102190.17
2019-02-04T09:30:31.297Z,102189.13
2019-02-04T09:33:00.824Z,102188.16
2019-02-04T09:35:30.404Z,102196.30
2019-02-04T09:37:59.917Z,102196.52
2019-02-04T09:40:32.834Z,102192.14
2019-02-04T09:43:02.438Z,102195.38
2019-02-04T09:45:32.040Z,102190.66
2019-02-04T09:48:01.936Z,102206.00
2019-02-04T09:50:43.011Z,102178.91
2019-02-04T09:53:12.663Z,102182.36
2019-02-04T09:55:42.172Z,102176.98
2019-02-04T09:58:11.704Z,102181.27
2019-02-04T10:00:41.166Z,102177.71
2019-02-04T10:03:10.914Z,102176.72
2019-02-04T10:05:40.624Z,102180.61
2019-02-04T10:08:10.475Z,102167.36
2019-02-04T10:10:40.110Z,102164.25
2019-02-04T10:13:09.664Z,102161.06
2019-02-04T10:15:42.281Z,102159.65
2019-02-04T10:18:12.368Z,102165.53
2019-02-04T10:20:42.394Z,102161.70
2019-02-04T10:23:11.942Z,102158.30
2019-02-04T10:25:43.175Z,102165.94
2019-02-04T10:28:14.953Z,102153.20
2019-02-04T10:30:44.909Z,102160.56
2019-02-04T10:33:14.802Z,102158.87
2019-02-04T10:35:44.391Z,102157.38
2019-02-04T10:38:16.379Z,102150.54
2019-02-04T10:40:45.281Z,102160.28
2019-02-04T10:43:15.051Z,102155.34
2019-02-04T10:45:44.733Z,102147.01
2019-02-04T10:48:14.323Z,102155.48
2019-02-04T10:50:46.708Z,102141.97
2019-02-04T10:53:17.147Z,102135.54
2019-02-04T10:55:46.845Z,102145.91
2019-02-04T10:58:16.475Z,102128.89
2019-02-04T11:00:46.465Z,102127.97
2019-02-04T11:03:16.040Z,102124.16
2019-02-04T11:05:45.715Z,102122.22
2019-02-04T11:08:15.308Z,102117.41
2019-02-04T11:10:44.740Z,102120.99
2019-02-04T11:13:16.087Z,102115.56
2019-02-04T11:15:45.983Z,102112.58
2019-02-04T11:18:16.189Z,102110.05
2019-02-04T11:20:57.237Z,102105.27
2019-02-04T11:23:17.082Z,102112.16
2019-02-04T11:25:46.846Z,102100.93
2019-02-04T11:28:16.914Z,102103.19
2019-02-04T11:30:49.597Z,102101.37
2019-02-04T11:33:19.184Z,102101.35
2019-02-04T11:35:48.699Z,102105.96
2019-02-04T11:38:18.755Z,102098.83
2019-02-04T11:40:48.750Z,102098.88
2019-02-04T11:43:18.748Z,102089.86
2019-02-04T11:45:48.413Z,102087.64
2019-02-04T11:48:18.527Z,102087.08
2019-02-04T11:50:48.060Z,102084.34
2019-02-04T11:53:17.697Z,102081.52
2019-02-04T11:55:47.728Z,102081.59
2019-02-04T11:58:17.398Z,102089.92
2019-02-04T12:00:47.040Z,102094.64
2019-02-04T12:03:16.824Z,102080.51
2019-02-04T12:05:46.531Z,102091.46
2019-02-04T12:08:16.456Z,102090.63
2019-02-04T12:10:49.445Z,102081.14
2019-02-04T12:13:19.362Z,102080.45
2019-02-04T12:15:49.133Z,102094.45
2019-02-04T12:18:18.655Z,102074.23
2019-02-04T12:20:48.546Z,102082.34
2019-02-04T12:23:18.369Z,102075.14
2019-02-04T12:25:48.246Z,102062.06
2019-02-04T12:28:18.425Z,102071.75
2019-02-04T12:30:48.249Z,102064.89
2019-02-04T12:33:18.017Z,102060.94
2019-02-04T12:35:47.896Z,102057.14
2019-02-04T12:38:18.173Z,102065.52
2019-02-04T12:40:47.859Z,102058.45
2019-02-04T12:43:17.316Z,102055.77
2019-02-04T12:45:47.030Z,102057.69
2019-02-04T12:48:16.655Z,102063.75
2019-02-04T12:50:46.513Z,102057.19
2019-02-04T12:53:16.171Z,102050.75
2019-02-04T12:55:45.732Z,102061.56
2019-02-04T12:58:15.397Z,102048.72
2019-02-04T13:00:45.200Z,102052.37
2019-02-04T13:03:14.696Z,102053.28
2019-02-04T13:05:49.468Z,102058.33
2019-02-04T13:08:18.937Z,102047.39
2019-02-04T13:10:48.544Z,102041.55
2019-02-04T13:13:18.730Z,102042.56
2019-02-04T13:15:48.221Z,102035.73
2019-02-04T13:18:17.701Z,102027.47
2019-02-04T13:20:47.397Z,102030.53
2019-02-04T13:23:17.074Z,102031.57
2019-02-04T13:25:46.675Z,102029.44
2019-02-04T13:28:17.252Z,102026.66
2019-02-04T13:30:46.882Z,102025.23
2019-02-04T13:33:16.527Z,102019.91
2019-02-04T13:35:47.317Z,102026.33
2019-02-04T13:38:16.883Z,102006.29
2019-02-04T13:40:46.466Z,102006.23
2019-02-04T13:43:16.038Z,102006.23
2019-02-04T13:45:45.749Z,102002.16
2019-02-04T13:48:15.582Z,102007.62
2019-02-04T13:50:45.420Z,101996.29
2019-02-04T13:53:14.887Z,101996.49
2019-02-04T13:55:44.504Z,101988.75
2019-02-04T13:58:14.544Z,101996.49
2019-02-04T14:00:44.406Z,101989.25
2019-02-04T14:03:13.894Z,101979.19
2019-02-04T14:05:43.669Z,101985.30
2019-02-04T14:08:13.399Z,101972.30
2019-02-04T14:10:46.114Z,101972.72
2019-02-04T14:13:14.948Z,101972.30
2019-02-04T14:15:44.937Z,101976.64
2019-02-04T14:18:14.740Z,101964.91
2019-02-04T14:20:44.461Z,101969.69
2019-02-04T14:23:14.212Z,101967.23
2019-02-04T14:25:44.154Z,101968.21
2019-02-04T14:28:13.985Z,101956.34
2019-02-04T14:30:43.746Z,101955.19
2019-02-04T14:33:13.336Z,101961.55
2019-02-04T14:35:43.345Z,101952.52
2019-02-04T14:38:12.824Z,101948.79
2019-02-04T14:40:42.334Z,101958.89
2019-02-04T14:43:23.972Z,101951.16
2019-02-04T14:45:56.970Z,101944.70
2019-02-04T14:48:52.652Z,101947.29
2019-02-04T14:51:52.700Z,101949.16
2019-02-04T14:55:01.679Z,101954.28
2019-02-04T14:57:40.235Z,101941.91
2019-02-04T15:00:21.973Z,101937.47
2019-02-04T15:03:19.409Z,101936.70
2019-02-04T15:05:53.471Z,101934.10
2019-02-04T15:08:38.438Z,101928.98
2019-02-04T15:11:26.256Z,101936.62
2019-02-04T15:14:05.557Z,101923.20
2019-02-04T15:16:42.465Z,101916.75
2019-02-04T15:19:26.930Z,101921.04
2019-02-04T15:22:19.443Z,101930.52
2019-02-04T15:25:17.235Z,101917.02
2019-02-04T15:28:02.364Z,101923.94
2019-02-04T15:30:43.787Z,101931.92
2019-02-04T15:33:34.711Z,101923.10
2019-02-04T15:36:25.383Z,101932.02
2019-02-04T15:38:58.131Z,101925.20
2019-02-04T15:41:40.018Z,101944.52
2019-02-04T15:44:32.532Z,101945.66
2019-02-04T15:47:08.251Z,101953.36
2019-02-04T15:49:55.670Z,101948.09
2019-02-04T15:52:26.789Z,101951.13
2019-02-04T15:54:56.789Z,101954.63
2019-02-04T15:57:26.256Z,101964.29
2019-02-04T15:59:55.829Z,101970.81
2019-02-04T16:02:25.573Z,101955.55
2019-02-04T16:04:55.132Z,101952.34
2019-02-04T16:07:24.621Z,101935.32
2019-02-04T16:09:54.111Z,101919.89
2019-02-04T16:12:23.613Z,101916.06
2019-02-04T16:14:53.284Z,101898.07
2019-02-04T16:17:22.762Z,101910.48
2019-02-04T16:19:53.505Z,101906.06
2019-02-04T16:22:23.150Z,101907.81
2019-02-04T16:24:53.103Z,101898.75
2019-02-04T16:27:22.668Z,101910.91
2019-02-04T16:29:52.133Z,101910.52
2019-02-04T16:32:21.661Z,101907.33
2019-02-04T16:34:51.210Z,101922.28
2019-02-04T16:37:20.682Z,101917.55
2019-02-04T16:39:50.404Z,101907.83
2019-02-04T16:42:19.919Z,101902.96
2019-02-04T16:44:49.398Z,101906.12
2019-02-04T16:47:19.054Z,101890.56
2019-02-04T16:49:48.675Z,101893.12
2019-02-04T16:52:18.758Z,101897.09
2019-02-04T16:54:48.563Z,101902.62
2019-02-04T16:57:18.139Z,101889.52
2019-02-04T16:59:47.780Z,101898.99
2019-02-04T17:02:17.268Z,101905.70
2019-02-04T17:04:46.731Z,101904.13
2019-02-04T17:07:16.358Z,101898.69
2019-02-04T17:09:45.903Z,101892.29
2019-02-04T17:12:15.948Z,101894.63
2019-02-04T17:14:45.696Z,101887.72
2019-02-04T17:17:15.309Z,101893.98
2019-02-04T17:19:44.883Z,101892.81
2019-02-04T17:22:14.392Z,101880.80
2019-02-04T17:24:44.337Z,101907.94
2019-02-04T17:27:14.254Z,101897.28
2019-02-04T17:29:43.898Z,101888.80
2019-02-04T17:32:13.870Z,101886.68
2019-02-04T17:34:43.460Z,101859.95
2019-02-04T17:37:13.452Z,101880.00
2019-02-04T17:39:46.112Z,101863.08
2019-02-04T17:42:15.671Z,101870.39
2019-02-04T17:44:45.497Z,101862.55
2019-02-04T17:47:15.076Z,101865.10
2019-02-04T17:49:44.521Z,101851.56
2019-02-04T17:52:14.276Z,101862.36
2019-02-04T17:54:44.388Z,101868.25
2019-02-04T17:57:14.275Z,101859.68
2019-02-04T17:59:44.153Z,101857.06
2019-02-04T18:02:13.826Z,101858.70
2019-02-04T18:04:43.278Z,101835.64
2019-02-04T18:07:12.777Z,101840.44
2019-02-04T18:09:42.406Z,101836.77
2019-02-04T18:12:12.192Z,101848.16
2019-02-04T18:14:42.163Z,101839.86
2019-02-04T18:17:11.884Z,101839.14
2019-02-04T18:19:42.026Z,101850.28
2019-02-04T18:22:11.539Z,101846.57
2019-02-04T18:24:41.205Z,101839.80
2019-02-04T18:27:11.028Z,101841.98
2019-02-04T18:29:40.559Z,101845.03
2019-02-04T18:32:10.420Z,101837.82
2019-02-04T18:34:39.984Z,101840.44
2019-02-04T18:37:09.731Z,101843.41
2019-02-04T18:39:39.290Z,101837.68
2019-02-04T18:42:08.779Z,101839.39
2019-02-04T18:44:38.776Z,101851.50
2019-02-04T18:47:11.118Z,101858.98
2019-02-04T18:49:39.540Z,101848.89
2019-02-04T18:52:09.033Z,101844.22
2019-02-04T18:54:38.884Z,101849.72
2019-02-04T18:57:08.435Z,101844.16
2019-02-04T18:59:38.172Z,101845.58
2019-02-04T19:02:07.755Z,101841.11
2019-02-04T19:04:37.310Z,101831.78
2019-02-04T19:07:07.447Z,101828.87
2019-02-04T19:09:37.068Z,101836.91
2019-02-04T19:12:06.827Z,101829.13
2019-02-04T19:14:36.525Z,101818.69
2019-02-04T19:17:06.035Z,101822.66
2019-02-04T19:19:35.496Z,101829.46
2019-02-04T19:22:04.977Z,101825.52
2019-02-04T19:24:34.656Z,101833.31
2019-02-04T19:27:04.356Z,101828.71
2019-02-04T19:29:34.431Z,101823.41
2019-02-04T19:32:04.343Z,101824.82
2019-02-04T19:34:34.427Z,101831.62
2019-02-04T19:37:04.026Z,101817.22
2019-02-04T19:39:33.785Z,101822.73
2019-02-04T19:42:03.423Z,101811.48
2019-02-04T19:44:33.347Z,101825.32
2019-02-04T19:47:03.110Z,101822.58
2019-02-04T19:49:32.696Z,101822.34
2019-02-04T19:52:02.392Z,101818.31
2019-02-04T19:54:32.001Z,101823.73
2019-02-04T19:57:02.002Z,101832.42
2019-02-04T19:59:33.326Z,101824.03
2019-02-04T20:02:02.775Z,101825.52
2019-02-04T20:04:32.332Z,101832.64
2019-02-04T20:07:02.271Z,101820.30
2019-02-04T20:09:33.526Z,101824.83
2019-02-04T20:12:03.274Z,101824.89
2019-02-04T20:14:32.883Z,101825.97
2019-02-04T20:17:02.771Z,101822.02
2019-02-04T20:19:32.522Z,101825.64
2019-02-04T20:22:02.170Z,101829.38
2019-02-04T20:24:33.587Z,101814.97
2019-02-04T20:27:03.208Z,101822.47
2019-02-04T20:29:33.054Z,101827.68
2019-02-04T20:32:03.163Z,101815.63
2019-02-04T20:34:32.906Z,101825.97
2019-02-04T20:37:02.419Z,101821.88
2019-02-04T20:39:32.015Z,101822.52
2019-02-04T20:42:01.581Z,101830.55
2019-02-04T20:44:31.179Z,101837.89
2019-02-04T20:47:00.774Z,101824.20
2019-02-04T20:49:30.370Z,101823.92
2019-02-04T20:51:59.900Z,101833.31
2019-02-04T20:54:29.417Z,101839.64
2019-02-04T20:56:59.083Z,101834.43
2019-02-04T20:59:28.661Z,101831.55
2019-02-04T21:01:58.272Z,101831.97
2019-02-04T21:04:27.827Z,101832.11
2019-02-04T21:06:57.352Z,101829.34
2019-02-04T21:09:27.223Z,101834.97
2019-02-04T21:11:56.847Z,101832.05
2019-02-04T21:14:26.479Z,101836.69
2019-02-04T21:16:56.190Z,101839.70
2019-02-04T21:19:25.783Z,101836.67
2019-02-04T21:21:55.315Z,101838.02
2019-02-04T21:24:25.414Z,101837.95
2019-02-04T21:26:54.994Z,101833.31
2019-02-04T21:29:24.647Z,101838.98
2019-02-04T21:31:54.182Z,101843.02
2019-02-04T21:34:23.699Z,101834.22
2019-02-04T21:36:53.232Z,101831.16
2019-02-04T21:39:23.070Z,101831.61
2019-02-04T21:41:52.617Z,101833.37
2019-02-04T21:44:22.159Z,101826.10
2019-02-04T21:46:51.719Z,101829.69
2019-02-04T21:49:21.508Z,101822.94
2019-02-04T21:51:51.007Z,101821.87
2019-02-04T21:54:20.577Z,101819.13
2019-02-04T21:56:50.052Z,101832.29
2019-02-04T21:59:19.786Z,101842.09
2019-02-04T22:01:49.267Z,101834.00
2019-02-04T22:04:18.869Z,101836.77
2019-02-04T22:06:48.362Z,101839.36
2019-02-04T22:09:18.143Z,101838.09
2019-02-04T22:11:47.654Z,101837.47
2019-02-04T22:14:17.604Z,101828.73
2019-02-04T22:16:47.154Z,101839.21
2019-02-04T22:19:21.239Z,101840.08
2019-02-04T22:21:50.808Z,101834.88
2019-02-04T22:24:20.349Z,101826.55
2019-02-04T22:26:49.901Z,101823.31
2019-02-04T22:29:19.888Z,101823.43
2019-02-04T22:31:49.428Z,101818.94
2019-02-04T22:34:19.481Z,101823.22
2019-02-04T22:36:49.087Z,101808.15
2019-02-04T22:39:18.723Z,101826.75
2019-02-04T22:41:48.302Z,101819.22
2019-02-04T22:44:17.792Z,101820.56
2019-02-04T22:46:47.415Z,101817.37
2019-02-04T22:49:17.049Z,101819.36
2019-02-04T22:51:46.544Z,101823.10
2019-02-04T22:54:17.055Z,101813.72
2019-02-04T22:56:46.601Z,101817.07
2019-02-04T22:59:16.117Z,101811.02
2019-02-04T23:01:46.274Z,101814.55
2019-02-04T23:04:15.885Z,101815.75
2019-02-04T23:06:45.620Z,101816.61
2019-02-04T23:09:15.220Z,101808.15
2019-02-04T23:11:44.828Z,101797.73
2019-02-04T23:14:14.359Z,101807.20
2019-02-04T23:16:43.840Z,101821.39
2019-02-04T23:19:13.338Z,101817.36
2019-02-04T23:21:42.960Z,101811.91
2019-02-04T23:24:12.719Z,101822.70
2019-02-04T23:26:42.393Z,101812.57
2019-02-04T23:29:11.861Z,101824.61
2019-02-04T23:31:41.402Z,101831.27
2019-02-04T23:34:10.886Z,101828.09
2019-02-04T23:36:40.460Z,101831.17
2019-02-04T23:39:10.011Z,101837.96
2019-02-04T23:41:39.617Z,101831.73
2019-02-04T23:44:09.276Z,101830.75
2019-02-04T23:46:38.759Z,101843.19
2019-02-04T23:49:08.801Z,101848.34
2019-02-04T23:51:38.376Z,101845.86
2019-02-04T23:54:07.851Z,101835.70
2019-02-04T23:56:37.443Z,101851.22
2019-02-04T23:59:07.046Z,101852.33
